sensor_id;sensor_type;location;lat;lon;timestamp;pressure;altitude;pressure_sealevel;temperature
69545;BMP180;56766;52.260;20.746;2022-12-29T00:00:18;100145.80;;;4.88
69545;BMP180;56766;52.260;20.746;2022-12-29T00:03:05;100154.20;;;4.90
69545;BMP180;56766;52.260;20.746;2022-12-29T00:05:31;100158.20;;;4.88
69545;BMP180;56766;52.260;20.746;2022-12-29T00:07:58;100155.20;;;4.86
69545;BMP180;56766;52.260;20.746;2022-12-29T00:10:25;100147.40;;;4.84
69545;BMP180;56766;52.260;20.746;2022-12-29T00:12:51;100144.20;;;4.88
69545;BMP180;56766;52.260;20.746;2022-12-29T00:15:37;100146.40;;;4.90
69545;BMP180;56766;52.260;20.746;2022-12-29T00:18:04;100142.20;;;4.90
69545;BMP180;56766;52.260;20.746;2022-12-29T00:20:35;100138.20;;;4.90
69545;BMP180;56766;52.260;20.746;2022-12-29T00:23:20;100147.20;;;4.90
69545;BMP180;56766;52.260;20.746;2022-12-29T00:26:14;100147.80;;;4.90
69545;BMP180;56766;52.260;20.746;2022-12-29T00:29:00;100147.40;;;4.88
69545;BMP180;56766;52.260;20.746;2022-12-29T00:31:46;100143.80;;;4.84
69545;BMP180;56766;52.260;20.746;2022-12-29T00:34:31;100144.80;;;4.90
69545;BMP180;56766;52.260;20.746;2022-12-29T00:37:17;100142.80;;;4.88
69545;BMP180;56766;52.260;20.746;2022-12-29T00:40:04;100148.40;;;4.82
69545;BMP180;56766;52.260;20.746;2022-12-29T00:42:50;100152.00;;;4.90
69545;BMP180;56766;52.260;20.746;2022-12-29T00:45:35;100147.60;;;4.90
69545;BMP180;56766;52.260;20.746;2022-12-29T00:48:02;100146.20;;;4.90
69545;BMP180;56766;52.260;20.746;2022-12-29T00:50:29;100145.00;;;4.90
69545;BMP180;56766;52.260;20.746;2022-12-29T00:52:56;100135.80;;;4.90
69545;BMP180;56766;52.260;20.746;2022-12-29T00:55:22;100130.20;;;4.90
69545;BMP180;56766;52.260;20.746;2022-12-29T00:57:49;100133.60;;;4.90
69545;BMP180;56766;52.260;20.746;2022-12-29T01:00:16;100128.20;;;4.90
69545;BMP180;56766;52.260;20.746;2022-12-29T01:02:42;100125.80;;;4.94
69545;BMP180;56766;52.260;20.746;2022-12-29T01:05:09;100127.20;;;4.96
69545;BMP180;56766;52.260;20.746;2022-12-29T01:07:36;100121.40;;;5.00
69545;BMP180;56766;52.260;20.746;2022-12-29T01:10:03;100124.20;;;5.00
69545;BMP180;56766;52.260;20.746;2022-12-29T01:12:36;100118.40;;;4.94
69545;BMP180;56766;52.260;20.746;2022-12-29T01:15:13;100118.20;;;5.00
69545;BMP180;56766;52.260;20.746;2022-12-29T01:17:42;100110.60;;;4.98
69545;BMP180;56766;52.260;20.746;2022-12-29T01:20:10;100112.80;;;5.00
69545;BMP180;56766;52.260;20.746;2022-12-29T01:22:38;100110.80;;;4.94
69545;BMP180;56766;52.260;20.746;2022-12-29T01:25:06;100109.00;;;4.98
69545;BMP180;56766;52.260;20.746;2022-12-29T01:27:33;100098.00;;;4.92
69545;BMP180;56766;52.260;20.746;2022-12-29T01:30:00;100099.00;;;5.00
69545;BMP180;56766;52.260;20.746;2022-12-29T01:32:26;100095.80;;;5.00
69545;BMP180;56766;52.260;20.746;2022-12-29T01:34:53;100088.60;;;4.98
69545;BMP180;56766;52.260;20.746;2022-12-29T01:37:20;100083.40;;;4.94
69545;BMP180;56766;52.260;20.746;2022-12-29T01:39:46;100080.60;;;4.92
69545;BMP180;56766;52.260;20.746;2022-12-29T01:42:19;100078.40;;;4.90
69545;BMP180;56766;52.260;20.746;2022-12-29T01:45:00;100078.40;;;4.90
69545;BMP180;56766;52.260;20.746;2022-12-29T01:47:47;100075.80;;;4.94
69545;BMP180;56766;52.260;20.746;2022-12-29T01:50:35;100080.40;;;5.00
69545;BMP180;56766;52.260;20.746;2022-12-29T01:53:22;100076.00;;;4.98
69545;BMP180;56766;52.260;20.746;2022-12-29T01:55:59;100055.40;;;4.94
69545;BMP180;56766;52.260;20.746;2022-12-29T01:58:34;100060.40;;;4.92
69545;BMP180;56766;52.260;20.746;2022-12-29T02:01:03;100064.80;;;4.90
69545;BMP180;56766;52.260;20.746;2022-12-29T02:03:31;100068.60;;;4.94
69545;BMP180;56766;52.260;20.746;2022-12-29T02:06:10;100071.00;;;4.90
69545;BMP180;56766;52.260;20.746;2022-12-29T02:08:39;100077.80;;;4.90
69545;BMP180;56766;52.260;20.746;2022-12-29T02:11:07;100076.40;;;4.90
69545;BMP180;56766;52.260;20.746;2022-12-29T02:13:34;100078.80;;;4.90
69545;BMP180;56766;52.260;20.746;2022-12-29T02:19:16;100079.80;;;4.90
69545;BMP180;56766;52.260;20.746;2022-12-29T02:30:53;100075.00;;;4.90
69545;BMP180;56766;52.260;20.746;2022-12-29T02:33:46;100077.60;;;4.80
69545;BMP180;56766;52.260;20.746;2022-12-29T02:36:46;100083.20;;;4.80
69545;BMP180;56766;52.260;20.746;2022-12-29T02:42:56;100086.00;;;4.80
69545;BMP180;56766;52.260;20.746;2022-12-29T02:45:36;100081.60;;;4.76
69545;BMP180;56766;52.260;20.746;2022-12-29T02:48:18;100085.20;;;4.76
69545;BMP180;56766;52.260;20.746;2022-12-29T02:53:23;100085.00;;;4.76
69545;BMP180;56766;52.260;20.746;2022-12-29T02:56:09;100079.60;;;4.70
69545;BMP180;56766;52.260;20.746;2022-12-29T02:58:36;100082.00;;;4.70
69545;BMP180;56766;52.260;20.746;2022-12-29T03:07:32;100073.80;;;4.70
69545;BMP180;56766;52.260;20.746;2022-12-29T03:12:45;100050.60;;;4.60
69545;BMP180;56766;52.260;20.746;2022-12-29T03:16:09;100036.60;;;4.60
69545;BMP180;56766;52.260;20.746;2022-12-29T03:21:39;100014.20;;;4.50
69545;BMP180;56766;52.260;20.746;2022-12-29T03:24:32;100011.20;;;4.48
69545;BMP180;56766;52.260;20.746;2022-12-29T03:27:04;100016.60;;;4.40
69545;BMP180;56766;52.260;20.746;2022-12-29T03:29:40;100000.20;;;4.40
69545;BMP180;56766;52.260;20.746;2022-12-29T03:32:13;99987.20;;;4.40
69545;BMP180;56766;52.260;20.746;2022-12-29T03:34:42;99982.20;;;4.40
69545;BMP180;56766;52.260;20.746;2022-12-29T03:37:20;100012.80;;;4.40
69545;BMP180;56766;52.260;20.746;2022-12-29T03:39:48;100036.40;;;4.40
69545;BMP180;56766;52.260;20.746;2022-12-29T03:42:21;100031.40;;;4.40
69545;BMP180;56766;52.260;20.746;2022-12-29T03:44:55;100024.00;;;4.40
69545;BMP180;56766;52.260;20.746;2022-12-29T03:47:24;100019.20;;;4.40
69545;BMP180;56766;52.260;20.746;2022-12-29T03:49:52;100012.40;;;4.32
69545;BMP180;56766;52.260;20.746;2022-12-29T03:52:19;99999.60;;;4.30
69545;BMP180;56766;52.260;20.746;2022-12-29T03:54:46;100001.80;;;4.28
69545;BMP180;56766;52.260;20.746;2022-12-29T03:57:13;100017.00;;;4.28
69545;BMP180;56766;52.260;20.746;2022-12-29T03:59:40;99999.80;;;4.30
69545;BMP180;56766;52.260;20.746;2022-12-29T04:02:06;100011.00;;;4.28
69545;BMP180;56766;52.260;20.746;2022-12-29T04:04:33;100001.20;;;4.24
69545;BMP180;56766;52.260;20.746;2022-12-29T04:07:00;99993.20;;;4.20
69545;BMP180;56766;52.260;20.746;2022-12-29T04:09:26;99996.40;;;4.20
69545;BMP180;56766;52.260;20.746;2022-12-29T04:11:53;99991.20;;;4.20
69545;BMP180;56766;52.260;20.746;2022-12-29T04:14:20;100000.80;;;4.20
69545;BMP180;56766;52.260;20.746;2022-12-29T04:16:46;100010.20;;;4.20
69545;BMP180;56766;52.260;20.746;2022-12-29T04:19:13;100008.00;;;4.20
69545;BMP180;56766;52.260;20.746;2022-12-29T04:21:40;99992.40;;;4.20
69545;BMP180;56766;52.260;20.746;2022-12-29T04:24:07;99992.00;;;4.20
69545;BMP180;56766;52.260;20.746;2022-12-29T04:26:34;99975.20;;;4.20
69545;BMP180;56766;52.260;20.746;2022-12-29T04:29:01;99964.00;;;4.10
69545;BMP180;56766;52.260;20.746;2022-12-29T04:31:27;99980.40;;;4.10
69545;BMP180;56766;52.260;20.746;2022-12-29T04:33:54;99981.20;;;4.10
69545;BMP180;56766;52.260;20.746;2022-12-29T04:36:23;99978.00;;;4.10
69545;BMP180;56766;52.260;20.746;2022-12-29T04:38:50;99974.00;;;4.06
69545;BMP180;56766;52.260;20.746;2022-12-29T04:41:17;99971.20;;;4.00
69545;BMP180;56766;52.260;20.746;2022-12-29T04:43:44;99970.00;;;4.00
69545;BMP180;56766;52.260;20.746;2022-12-29T04:46:10;99983.60;;;4.00
69545;BMP180;56766;52.260;20.746;2022-12-29T04:48:37;99966.80;;;4.00
69545;BMP180;56766;52.260;20.746;2022-12-29T04:51:04;99963.40;;;4.00
69545;BMP180;56766;52.260;20.746;2022-12-29T04:53:31;99955.80;;;4.00
69545;BMP180;56766;52.260;20.746;2022-12-29T04:55:57;99956.20;;;4.00
69545;BMP180;56766;52.260;20.746;2022-12-29T04:58:24;99948.00;;;4.00
69545;BMP180;56766;52.260;20.746;2022-12-29T05:00:51;99951.20;;;4.00
69545;BMP180;56766;52.260;20.746;2022-12-29T05:03:18;99952.20;;;4.00
69545;BMP180;56766;52.260;20.746;2022-12-29T05:05:45;99948.40;;;3.90
69545;BMP180;56766;52.260;20.746;2022-12-29T05:08:12;99949.60;;;3.90
69545;BMP180;56766;52.260;20.746;2022-12-29T05:10:38;99944.40;;;3.90
69545;BMP180;56766;52.260;20.746;2022-12-29T05:13:05;99936.80;;;3.90
69545;BMP180;56766;52.260;20.746;2022-12-29T05:15:32;99943.60;;;3.90
69545;BMP180;56766;52.260;20.746;2022-12-29T05:17:58;99938.00;;;3.90
69545;BMP180;56766;52.260;20.746;2022-12-29T05:20:25;99938.20;;;3.90
69545;BMP180;56766;52.260;20.746;2022-12-29T05:22:52;99934.00;;;3.90
69545;BMP180;56766;52.260;20.746;2022-12-29T05:25:19;99929.20;;;3.90
69545;BMP180;56766;52.260;20.746;2022-12-29T05:27:45;99925.20;;;3.90
69545;BMP180;56766;52.260;20.746;2022-12-29T05:30:12;99925.80;;;3.90
69545;BMP180;56766;52.260;20.746;2022-12-29T05:32:39;99926.40;;;3.90
69545;BMP180;56766;52.260;20.746;2022-12-29T05:35:07;99925.40;;;3.90
69545;BMP180;56766;52.260;20.746;2022-12-29T05:37:34;99924.40;;;3.90
69545;BMP180;56766;52.260;20.746;2022-12-29T05:40:00;99919.00;;;3.90
69545;BMP180;56766;52.260;20.746;2022-12-29T05:42:27;99917.20;;;3.90
69545;BMP180;56766;52.260;20.746;2022-12-29T05:44:54;99905.20;;;3.86
69545;BMP180;56766;52.260;20.746;2022-12-29T05:47:21;99906.80;;;3.84
69545;BMP180;56766;52.260;20.746;2022-12-29T05:49:47;99913.80;;;3.80
69545;BMP180;56766;52.260;20.746;2022-12-29T05:52:14;99916.20;;;3.82
69545;BMP180;56766;52.260;20.746;2022-12-29T05:54:41;99910.00;;;3.80
69545;BMP180;56766;52.260;20.746;2022-12-29T05:57:08;99913.20;;;3.90
69545;BMP180;56766;52.260;20.746;2022-12-29T05:59:36;99910.20;;;3.90
69545;BMP180;56766;52.260;20.746;2022-12-29T06:02:03;99911.60;;;3.90
69545;BMP180;56766;52.260;20.746;2022-12-29T06:04:29;99914.40;;;3.90
69545;BMP180;56766;52.260;20.746;2022-12-29T06:06:57;99918.80;;;3.92
69545;BMP180;56766;52.260;20.746;2022-12-29T06:09:24;99919.40;;;4.00
69545;BMP180;56766;52.260;20.746;2022-12-29T06:11:50;99921.40;;;4.00
69545;BMP180;56766;52.260;20.746;2022-12-29T06:14:17;99919.20;;;4.00
69545;BMP180;56766;52.260;20.746;2022-12-29T06:16:44;99918.20;;;4.00
69545;BMP180;56766;52.260;20.746;2022-12-29T06:19:11;99914.20;;;4.00
69545;BMP180;56766;52.260;20.746;2022-12-29T06:21:37;99911.60;;;4.02
69545;BMP180;56766;52.260;20.746;2022-12-29T06:24:05;99915.40;;;4.10
69545;BMP180;56766;52.260;20.746;2022-12-29T06:26:32;99914.80;;;4.10
69545;BMP180;56766;52.260;20.746;2022-12-29T06:28:59;99922.00;;;4.10
69545;BMP180;56766;52.260;20.746;2022-12-29T06:31:25;99919.80;;;4.10
69545;BMP180;56766;52.260;20.746;2022-12-29T06:33:52;99923.80;;;4.10
69545;BMP180;56766;52.260;20.746;2022-12-29T06:36:19;99919.20;;;4.10
69545;BMP180;56766;52.260;20.746;2022-12-29T06:38:46;99925.40;;;4.16
69545;BMP180;56766;52.260;20.746;2022-12-29T06:41:12;99926.20;;;4.10
69545;BMP180;56766;52.260;20.746;2022-12-29T06:43:39;99928.20;;;4.14
69545;BMP180;56766;52.260;20.746;2022-12-29T06:46:06;99922.80;;;4.18
69545;BMP180;56766;52.260;20.746;2022-12-29T06:48:33;99922.00;;;4.12
69545;BMP180;56766;52.260;20.746;2022-12-29T06:51:00;99923.20;;;4.18
69545;BMP180;56766;52.260;20.746;2022-12-29T06:53:26;99918.00;;;4.20
69545;BMP180;56766;52.260;20.746;2022-12-29T06:55:53;99911.20;;;4.20
69545;BMP180;56766;52.260;20.746;2022-12-29T06:58:20;99905.40;;;4.20
69545;BMP180;56766;52.260;20.746;2022-12-29T07:00:48;99903.00;;;4.20
69545;BMP180;56766;52.260;20.746;2022-12-29T07:03:15;99908.60;;;4.20
69545;BMP180;56766;52.260;20.746;2022-12-29T07:05:41;99900.20;;;4.20
69545;BMP180;56766;52.260;20.746;2022-12-29T07:08:09;99898.80;;;4.20
69545;BMP180;56766;52.260;20.746;2022-12-29T07:10:35;99898.00;;;4.20
69545;BMP180;56766;52.260;20.746;2022-12-29T07:13:03;99892.60;;;4.24
69545;BMP180;56766;52.260;20.746;2022-12-29T07:15:30;99894.40;;;4.30
69545;BMP180;56766;52.260;20.746;2022-12-29T07:17:57;99895.00;;;4.30
69545;BMP180;56766;52.260;20.746;2022-12-29T07:20:23;99890.00;;;4.40
69545;BMP180;56766;52.260;20.746;2022-12-29T07:22:50;99892.40;;;4.40
69545;BMP180;56766;52.260;20.746;2022-12-29T07:25:17;99888.20;;;4.44
69545;BMP180;56766;52.260;20.746;2022-12-29T07:27:44;99891.80;;;4.50
69545;BMP180;56766;52.260;20.746;2022-12-29T07:30:11;99893.20;;;4.50
69545;BMP180;56766;52.260;20.746;2022-12-29T07:32:38;99893.60;;;4.56
69545;BMP180;56766;52.260;20.746;2022-12-29T07:35:06;99897.40;;;4.60
69545;BMP180;56766;52.260;20.746;2022-12-29T07:37:34;99900.60;;;4.60
69545;BMP180;56766;52.260;20.746;2022-12-29T07:40:02;99901.80;;;4.70
69545;BMP180;56766;52.260;20.746;2022-12-29T07:42:31;99905.00;;;4.78
69545;BMP180;56766;52.260;20.746;2022-12-29T07:44:58;99906.20;;;4.80
69545;BMP180;56766;52.260;20.746;2022-12-29T07:47:26;99902.80;;;4.90
69545;BMP180;56766;52.260;20.746;2022-12-29T07:49:53;99892.00;;;4.90
69545;BMP180;56766;52.260;20.746;2022-12-29T07:52:20;99897.00;;;5.00
69545;BMP180;56766;52.260;20.746;2022-12-29T07:54:46;99890.60;;;5.00
69545;BMP180;56766;52.260;20.746;2022-12-29T07:57:13;99886.40;;;5.10
69545;BMP180;56766;52.260;20.746;2022-12-29T07:59:40;99887.40;;;5.10
69545;BMP180;56766;52.260;20.746;2022-12-29T08:02:10;99883.00;;;5.20
69545;BMP180;56766;52.260;20.746;2022-12-29T08:04:37;99871.40;;;5.30
69545;BMP180;56766;52.260;20.746;2022-12-29T08:07:04;99870.60;;;5.38
69545;BMP180;56766;52.260;20.746;2022-12-29T08:09:31;99877.80;;;5.40
69545;BMP180;56766;52.260;20.746;2022-12-29T08:11:58;99873.20;;;5.50
69545;BMP180;56766;52.260;20.746;2022-12-29T08:14:25;99872.40;;;5.60
69545;BMP180;56766;52.260;20.746;2022-12-29T08:16:51;99873.00;;;5.60
69545;BMP180;56766;52.260;20.746;2022-12-29T08:19:18;99873.00;;;5.64
69545;BMP180;56766;52.260;20.746;2022-12-29T08:21:45;99871.00;;;5.70
69545;BMP180;56766;52.260;20.746;2022-12-29T08:24:12;99874.80;;;5.70
69545;BMP180;56766;52.260;20.746;2022-12-29T08:26:38;99871.60;;;5.74
69545;BMP180;56766;52.260;20.746;2022-12-29T08:29:05;99880.40;;;5.80
69545;BMP180;56766;52.260;20.746;2022-12-29T08:31:32;99879.40;;;5.90
69545;BMP180;56766;52.260;20.746;2022-12-29T08:33:59;99883.80;;;5.90
69545;BMP180;56766;52.260;20.746;2022-12-29T08:36:26;99893.60;;;6.00
69545;BMP180;56766;52.260;20.746;2022-12-29T08:38:53;99890.80;;;6.00
69545;BMP180;56766;52.260;20.746;2022-12-29T08:41:19;99897.00;;;6.06
69545;BMP180;56766;52.260;20.746;2022-12-29T08:43:48;99902.00;;;6.10
69545;BMP180;56766;52.260;20.746;2022-12-29T08:46:16;99904.00;;;6.18
69545;BMP180;56766;52.260;20.746;2022-12-29T08:48:43;99904.20;;;6.20
69545;BMP180;56766;52.260;20.746;2022-12-29T08:51:09;99904.00;;;6.22
69545;BMP180;56766;52.260;20.746;2022-12-29T08:53:36;99903.60;;;6.30
69545;BMP180;56766;52.260;20.746;2022-12-29T08:56:03;99898.80;;;6.30
69545;BMP180;56766;52.260;20.746;2022-12-29T08:58:31;99897.60;;;6.40
69545;BMP180;56766;52.260;20.746;2022-12-29T09:00:59;99901.40;;;6.50
69545;BMP180;56766;52.260;20.746;2022-12-29T09:03:26;99899.80;;;6.50
69545;BMP180;56766;52.260;20.746;2022-12-29T09:05:54;99895.60;;;6.60
69545;BMP180;56766;52.260;20.746;2022-12-29T09:08:22;99893.20;;;6.70
69545;BMP180;56766;52.260;20.746;2022-12-29T09:10:50;99896.60;;;6.80
69545;BMP180;56766;52.260;20.746;2022-12-29T09:13:18;99888.40;;;6.90
69545;BMP180;56766;52.260;20.746;2022-12-29T09:15:45;99882.60;;;7.00
69545;BMP180;56766;52.260;20.746;2022-12-29T09:18:12;99888.60;;;7.00
69545;BMP180;56766;52.260;20.746;2022-12-29T09:20:39;99886.80;;;7.00
69545;BMP180;56766;52.260;20.746;2022-12-29T09:23:06;99891.20;;;6.90
69545;BMP180;56766;52.260;20.746;2022-12-29T09:25:33;99892.60;;;6.90
69545;BMP180;56766;52.260;20.746;2022-12-29T09:28:00;99886.00;;;6.90
69545;BMP180;56766;52.260;20.746;2022-12-29T09:30:29;99883.40;;;6.80
69545;BMP180;56766;52.260;20.746;2022-12-29T09:32:56;99885.20;;;6.80
69545;BMP180;56766;52.260;20.746;2022-12-29T09:35:22;99879.20;;;6.80
69545;BMP180;56766;52.260;20.746;2022-12-29T09:37:49;99878.40;;;6.80
69545;BMP180;56766;52.260;20.746;2022-12-29T09:40:44;99876.60;;;6.80
69545;BMP180;56766;52.260;20.746;2022-12-29T09:52:27;99863.80;;;6.98
69545;BMP180;56766;52.260;20.746;2022-12-29T09:55:04;99861.80;;;7.00
69545;BMP180;56766;52.260;20.746;2022-12-29T10:00:20;99861.60;;;6.90
69545;BMP180;56766;52.260;20.746;2022-12-29T10:03:04;99856.00;;;6.90
69545;BMP180;56766;52.260;20.746;2022-12-29T10:06:11;99859.20;;;6.90
69545;BMP180;56766;52.260;20.746;2022-12-29T10:15:18;99845.60;;;6.90
69545;BMP180;56766;52.260;20.746;2022-12-29T10:18:16;99832.20;;;6.94
69545;BMP180;56766;52.260;20.746;2022-12-29T10:21:05;99829.40;;;7.00
69545;BMP180;56766;52.260;20.746;2022-12-29T10:23:43;99839.20;;;7.04
69545;BMP180;56766;52.260;20.746;2022-12-29T10:26:23;99840.40;;;7.10
69545;BMP180;56766;52.260;20.746;2022-12-29T10:29:19;99839.20;;;7.18
69545;BMP180;56766;52.260;20.746;2022-12-29T10:32:04;99831.40;;;7.20
69545;BMP180;56766;52.260;20.746;2022-12-29T10:34:46;99831.40;;;7.30
69545;BMP180;56766;52.260;20.746;2022-12-29T10:39:48;99830.60;;;7.40
69545;BMP180;56766;52.260;20.746;2022-12-29T10:42:40;99826.00;;;7.50
69545;BMP180;56766;52.260;20.746;2022-12-29T10:45:14;99826.60;;;7.50
69545;BMP180;56766;52.260;20.746;2022-12-29T10:48:04;99826.80;;;7.50
69545;BMP180;56766;52.260;20.746;2022-12-29T10:50:33;99821.00;;;7.50
69545;BMP180;56766;52.260;20.746;2022-12-29T10:53:05;99828.60;;;7.60
69545;BMP180;56766;52.260;20.746;2022-12-29T10:55:36;99829.20;;;7.60
69545;BMP180;56766;52.260;20.746;2022-12-29T10:58:11;99824.20;;;7.60
69545;BMP180;56766;52.260;20.746;2022-12-29T11:00:39;99821.00;;;7.60
69545;BMP180;56766;52.260;20.746;2022-12-29T11:03:35;99813.60;;;7.62
69545;BMP180;56766;52.260;20.746;2022-12-29T11:06:21;99812.80;;;7.60
69545;BMP180;56766;52.260;20.746;2022-12-29T11:08:59;99813.60;;;7.60
69545;BMP180;56766;52.260;20.746;2022-12-29T11:11:35;99812.60;;;7.60
69545;BMP180;56766;52.260;20.746;2022-12-29T11:14:14;99811.60;;;7.60
69545;BMP180;56766;52.260;20.746;2022-12-29T11:16:41;99804.20;;;7.60
69545;BMP180;56766;52.260;20.746;2022-12-29T11:19:27;99793.60;;;7.58
69545;BMP180;56766;52.260;20.746;2022-12-29T11:21:55;99796.80;;;7.50
69545;BMP180;56766;52.260;20.746;2022-12-29T11:24:27;99802.80;;;7.50
69545;BMP180;56766;52.260;20.746;2022-12-29T11:27:14;99806.00;;;7.50
69545;BMP180;56766;52.260;20.746;2022-12-29T11:29:43;99814.40;;;7.50
69545;BMP180;56766;52.260;20.746;2022-12-29T11:32:24;99819.00;;;7.50
69545;BMP180;56766;52.260;20.746;2022-12-29T11:34:52;99809.20;;;7.46
69545;BMP180;56766;52.260;20.746;2022-12-29T11:37:31;99802.00;;;7.40
69545;BMP180;56766;52.260;20.746;2022-12-29T11:40:05;99808.20;;;7.40
69545;BMP180;56766;52.260;20.746;2022-12-29T11:42:47;99801.80;;;7.40
69545;BMP180;56766;52.260;20.746;2022-12-29T11:45:24;99805.20;;;7.40
69545;BMP180;56766;52.260;20.746;2022-12-29T11:48:09;99802.60;;;7.40
69545;BMP180;56766;52.260;20.746;2022-12-29T11:50:53;99810.60;;;7.50
69545;BMP180;56766;52.260;20.746;2022-12-29T11:56:14;99801.00;;;7.54
69545;BMP180;56766;52.260;20.746;2022-12-29T11:58:42;99800.00;;;7.60
69545;BMP180;56766;52.260;20.746;2022-12-29T12:01:11;99799.20;;;7.60
69545;BMP180;56766;52.260;20.746;2022-12-29T12:04:12;99796.80;;;7.60
69545;BMP180;56766;52.260;20.746;2022-12-29T12:07:15;99791.60;;;7.70
69545;BMP180;56766;52.260;20.746;2022-12-29T12:10:05;99792.20;;;7.70
69545;BMP180;56766;52.260;20.746;2022-12-29T12:12:53;99784.40;;;7.80
69545;BMP180;56766;52.260;20.746;2022-12-29T12:15:30;99789.60;;;7.82
69545;BMP180;56766;52.260;20.746;2022-12-29T12:21:10;99793.80;;;7.80
69545;BMP180;56766;52.260;20.746;2022-12-29T12:26:41;99783.40;;;7.82
69545;BMP180;56766;52.260;20.746;2022-12-29T12:32:18;99775.60;;;7.90
69545;BMP180;56766;52.260;20.746;2022-12-29T12:34:49;99770.60;;;7.90
69545;BMP180;56766;52.260;20.746;2022-12-29T12:37:48;99766.60;;;7.88
69545;BMP180;56766;52.260;20.746;2022-12-29T12:59:10;99763.80;;;8.00
69545;BMP180;56766;52.260;20.746;2022-12-29T13:18:45;99770.00;;;8.10
69545;BMP180;56766;52.260;20.746;2022-12-29T13:30:10;99774.80;;;8.00
69545;BMP180;56766;52.260;20.746;2022-12-29T13:33:13;99774.80;;;7.90
69545;BMP180;56766;52.260;20.746;2022-12-29T13:35:59;99778.40;;;7.90
69545;BMP180;56766;52.260;20.746;2022-12-29T13:38:40;99779.80;;;7.90
69545;BMP180;56766;52.260;20.746;2022-12-29T13:41:34;99779.00;;;7.88
69545;BMP180;56766;52.260;20.746;2022-12-29T13:44:05;99784.60;;;7.82
69545;BMP180;56766;52.260;20.746;2022-12-29T13:46:43;99791.20;;;7.80
69545;BMP180;56766;52.260;20.746;2022-12-29T13:49:19;99785.80;;;7.80
69545;BMP180;56766;52.260;20.746;2022-12-29T13:51:53;99787.40;;;7.78
69545;BMP180;56766;52.260;20.746;2022-12-29T13:55:07;99794.00;;;7.70
69545;BMP180;56766;52.260;20.746;2022-12-29T13:58:23;99797.00;;;7.70
69545;BMP180;56766;52.260;20.746;2022-12-29T14:03:55;99800.00;;;7.66
69545;BMP180;56766;52.260;20.746;2022-12-29T14:06:25;99801.00;;;7.60
69545;BMP180;56766;52.260;20.746;2022-12-29T14:09:00;99801.80;;;7.60
69545;BMP180;56766;52.260;20.746;2022-12-29T14:11:41;99796.60;;;7.60
69545;BMP180;56766;52.260;20.746;2022-12-29T14:14:24;99798.00;;;7.60
69545;BMP180;56766;52.260;20.746;2022-12-29T14:16:53;99789.60;;;7.54
69545;BMP180;56766;52.260;20.746;2022-12-29T14:19:38;99790.60;;;7.50
69545;BMP180;56766;52.260;20.746;2022-12-29T14:22:10;99786.80;;;7.50
69545;BMP180;56766;52.260;20.746;2022-12-29T14:24:45;99781.20;;;7.48
69545;BMP180;56766;52.260;20.746;2022-12-29T14:34:48;99783.40;;;7.30
69545;BMP180;56766;52.260;20.746;2022-12-29T14:37:34;99783.80;;;7.30
69545;BMP180;56766;52.260;20.746;2022-12-29T14:40:14;99787.00;;;7.30
69545;BMP180;56766;52.260;20.746;2022-12-29T14:42:50;99779.20;;;7.26
69545;BMP180;56766;52.260;20.746;2022-12-29T14:47:49;99785.40;;;7.30
69545;BMP180;56766;52.260;20.746;2022-12-29T14:50:38;99785.00;;;7.30
69545;BMP180;56766;52.260;20.746;2022-12-29T14:53:10;99786.80;;;7.20
69545;BMP180;56766;52.260;20.746;2022-12-29T14:55:58;99783.40;;;7.20
69545;BMP180;56766;52.260;20.746;2022-12-29T14:58:42;99784.40;;;7.10
69545;BMP180;56766;52.260;20.746;2022-12-29T15:01:28;99791.80;;;7.04
69545;BMP180;56766;52.260;20.746;2022-12-29T15:04:06;99792.60;;;7.00
69545;BMP180;56766;52.260;20.746;2022-12-29T15:06:41;99796.40;;;6.90
69545;BMP180;56766;52.260;20.746;2022-12-29T15:09:30;99798.60;;;6.80
69545;BMP180;56766;52.260;20.746;2022-12-29T15:12:38;99800.20;;;6.80
69545;BMP180;56766;52.260;20.746;2022-12-29T15:15:27;99814.20;;;6.72
69545;BMP180;56766;52.260;20.746;2022-12-29T15:17:55;99807.00;;;6.70
69545;BMP180;56766;52.260;20.746;2022-12-29T15:20:29;99808.40;;;6.78
69545;BMP180;56766;52.260;20.746;2022-12-29T15:23:04;99800.40;;;6.72
69545;BMP180;56766;52.260;20.746;2022-12-29T15:25:35;99798.80;;;6.70
69545;BMP180;56766;52.260;20.746;2022-12-29T15:28:06;99796.80;;;6.70
69545;BMP180;56766;52.260;20.746;2022-12-29T15:30:33;99797.80;;;6.60
69545;BMP180;56766;52.260;20.746;2022-12-29T15:33:00;99802.00;;;6.60
69545;BMP180;56766;52.260;20.746;2022-12-29T15:35:34;99804.80;;;6.60
69545;BMP180;56766;52.260;20.746;2022-12-29T15:38:16;99798.60;;;6.50
69545;BMP180;56766;52.260;20.746;2022-12-29T15:40:45;99801.00;;;6.50
69545;BMP180;56766;52.260;20.746;2022-12-29T15:46:05;99799.00;;;6.48
69545;BMP180;56766;52.260;20.746;2022-12-29T15:48:32;99801.60;;;6.40
69545;BMP180;56766;52.260;20.746;2022-12-29T15:51:00;99798.00;;;6.40
69545;BMP180;56766;52.260;20.746;2022-12-29T15:53:31;99795.40;;;6.40
69545;BMP180;56766;52.260;20.746;2022-12-29T15:56:10;99797.40;;;6.40
69545;BMP180;56766;52.260;20.746;2022-12-29T15:58:50;99794.80;;;6.30
69545;BMP180;56766;52.260;20.746;2022-12-29T16:01:28;99792.20;;;6.30
69545;BMP180;56766;52.260;20.746;2022-12-29T16:03:59;99789.60;;;6.30
69545;BMP180;56766;52.260;20.746;2022-12-29T16:06:44;99793.40;;;6.26
69545;BMP180;56766;52.260;20.746;2022-12-29T16:09:19;99801.80;;;6.22
69545;BMP180;56766;52.260;20.746;2022-12-29T16:11:53;99794.80;;;6.20
69545;BMP180;56766;52.260;20.746;2022-12-29T16:14:42;99791.60;;;6.20
69545;BMP180;56766;52.260;20.746;2022-12-29T16:17:28;99795.00;;;6.20
69545;BMP180;56766;52.260;20.746;2022-12-29T16:20:19;99794.80;;;6.20
69545;BMP180;56766;52.260;20.746;2022-12-29T16:22:56;99807.40;;;6.20
69545;BMP180;56766;52.260;20.746;2022-12-29T16:25:28;99804.60;;;6.20
69545;BMP180;56766;52.260;20.746;2022-12-29T16:28:03;99802.00;;;6.20
69545;BMP180;56766;52.260;20.746;2022-12-29T16:30:40;99808.60;;;6.24
69545;BMP180;56766;52.260;20.746;2022-12-29T16:33:38;99805.40;;;6.30
69545;BMP180;56766;52.260;20.746;2022-12-29T16:39:32;99811.80;;;6.44
69545;BMP180;56766;52.260;20.746;2022-12-29T16:42:00;99811.80;;;6.50
69545;BMP180;56766;52.260;20.746;2022-12-29T16:44:30;99814.80;;;6.60
69545;BMP180;56766;52.260;20.746;2022-12-29T16:49:47;99826.40;;;6.70